Time;durP1;ratioP1;P1;durP2;ratioP2;P2;SDS_P1;SDS_P2;PMS_P1;PMS_P2;Temp;Humidity;BMP_temperature;BMP_pressure;BME280_temperature;BME280_humidity;BME280_pressure;Samples;Min_cycle;Max_cycle;Signal;HPM_P1;HPM_P2
2022/01/23 00:02:12;;;;;;;347.60;130.98;;;-3.20;99.90;;;;;;5075456;28;20060;-54
2022/01/23 00:04:39;;;;;;;613.75;212.68;;;-3.40;99.90;;;;;;5075336;28;20039;-54
2022/01/23 00:07:08;;;;;;;718.15;251.43;;;-3.40;99.90;;;;;;5075236;28;20424;-54
2022/01/23 00:09:35;;;;;;;333.48;115.72;;;-3.50;99.90;;;;;;5075160;28;20032;-54
2022/01/23 00:12:07;;;;;;;285.45;106.80;;;-3.60;99.90;;;;;;5057495;28;20629;-54
2022/01/23 00:17:20;;;;;;;303.77;107.35;;;-3.70;99.90;;;;;;5075153;28;20025;-54
2022/01/23 00:19:54;;;;;;;287.92;107.15;;;-3.80;99.90;;;;;;5075020;28;20432;-54
2022/01/23 00:22:25;;;;;;;307.65;111.95;;;-3.70;99.90;;;;;;5075025;28;20060;-54
2022/01/23 00:30:31;;;;;;;403.15;143.75;;;-3.90;99.90;;;;;;5074841;28;20056;-54
2022/01/23 00:33:00;;;;;;;479.17;173.48;;;-3.90;99.90;;;;;;5056895;28;20062;-54
2022/01/23 00:35:27;;;;;;;515.33;191.38;;;-3.90;99.90;;;;;;5056672;28;20450;-54
2022/01/23 00:37:55;;;;;;;595.70;244.15;;;-4.10;99.90;;;;;;5074644;28;20031;-54
2022/01/23 00:40:22;;;;;;;540.58;211.40;;;-4.20;99.90;;;;;;5074731;28;20029;-54
2022/01/23 00:42:48;;;;;;;485.33;180.32;;;-4.40;99.90;;;;;;5074504;28;20029;-54
2022/01/23 00:45:33;;;;;;;407.23;145.15;;;-4.40;99.90;;;;;;5074770;28;20032;-54
2022/01/23 00:48:09;;;;;;;344.48;118.75;;;-4.30;99.90;;;;;;5074483;28;20035;-54
2022/01/23 00:50:44;;;;;;;298.30;104.28;;;-4.30;99.90;;;;;;5056768;28;20488;-54
2022/01/23 00:53:12;;;;;;;470.42;150.65;;;-4.30;99.90;;;;;;5074729;28;20039;-54
2022/01/23 00:55:41;;;;;;;576.55;200.10;;;-4.40;99.90;;;;;;5074485;28;20033;-54
2022/01/23 00:58:08;;;;;;;555.75;185.45;;;-4.40;99.90;;;;;;5074660;28;20016;-54
2022/01/23 01:00:35;;;;;;;539.42;174.43;;;-4.50;99.90;;;;;;5056488;28;20028;-54
2022/01/23 01:03:02;;;;;;;510.52;170.13;;;-4.50;99.90;;;;;;5056334;28;20036;-54
2022/01/23 01:05:28;;;;;;;509.50;164.80;;;-4.60;99.90;;;;;;5056535;28;20033;-54
2022/01/23 01:07:56;;;;;;;456.40;149.98;;;-4.60;99.90;;;;;;5074287;28;20024;-54
2022/01/23 01:10:33;;;;;;;373.90;123.75;;;-4.60;99.90;;;;;;5074293;28;20028;-54
2022/01/23 01:13:01;;;;;;;364.02;124.63;;;-4.40;99.90;;;;;;5056370;28;20043;-54
2022/01/23 01:15:51;;;;;;;268.13;91.78;;;-4.50;99.90;;;;;;5056318;28;20086;-54
2022/01/23 01:30:15;;;;;;;255.45;86.63;;;-4.80;99.90;;;;;;5074034;28;20035;-54
2022/01/23 01:32:15;;;;;;;287.02;98.40;;;-4.80;99.90;;;;;;5072695;28;20438;-54
2022/01/23 01:34:48;;;;;;;278.13;92.27;;;-4.90;99.90;;;;;;5056449;28;20016;-54
2022/01/23 01:37:16;;;;;;;268.90;92.28;;;-4.90;99.90;;;;;;5056314;28;20057;-54
2022/01/23 01:39:45;;;;;;;240.20;82.32;;;-5.00;99.90;;;;;;5056130;28;20025;-54
2022/01/23 01:42:12;;;;;;;154.38;54.53;;;-5.00;99.90;;;;;;5056014;28;20036;-54
2022/01/23 01:44:38;;;;;;;186.20;63.90;;;-5.00;99.90;;;;;;5073927;28;20036;-54
2022/01/23 01:47:26;;;;;;;198.40;67.97;;;-5.20;99.90;;;;;;5056075;28;20036;-54
2022/01/23 01:50:05;;;;;;;163.32;55.15;;;-5.10;99.90;;;;;;5056050;28;20032;-54
2022/01/23 01:52:34;;;;;;;192.30;65.75;;;-4.90;99.90;;;;;;5055803;28;20027;-54
2022/01/23 01:55:04;;;;;;;226.75;81.18;;;-4.90;99.90;;;;;;5056087;28;20028;-54
2022/01/23 01:57:44;;;;;;;244.32;87.38;;;-5.00;99.90;;;;;;5056057;28;20078;-54
2022/01/23 02:08:30;;;;;;;163.23;58.70;;;-5.20;99.90;;;;;;5072372;28;20043;-54
2022/01/23 02:11:05;;;;;;;180.60;64.45;;;-5.30;99.90;;;;;;5055929;28;20032;-54
2022/01/23 02:13:45;;;;;;;192.15;68.88;;;-5.50;99.90;;;;;;5055608;28;20077;-54
2022/01/23 02:25:00;;;;;;;196.38;67.22;;;-5.60;99.90;;;;;;5072500;28;20028;-54
2022/01/23 02:52:11;;;;;;;223.38;78.32;;;-5.50;99.90;;;;;;5075697;28;20031;-54
2022/01/23 03:00:15;;;;;;;178.02;62.95;;;-5.50;99.90;;;;;;5075606;28;20028;-54
2022/01/23 03:03:10;;;;;;;428.98;116.47;;;-5.50;99.90;;;;;;5035104;28;20028;-54
2022/01/23 03:11:54;;;;;;;442.73;133.07;;;-5.60;99.90;;;;;;4975216;28;20043;-54
2022/01/23 03:14:38;;;;;;;567.40;164.38;;;-5.50;99.90;;;;;;4975376;28;20030;-54
2022/01/23 03:28:20;;;;;;;189.63;66.03;;;-5.50;99.90;;;;;;4975277;28;20054;-54
2022/01/23 03:33:32;;;;;;;188.40;61.83;;;-5.50;99.90;;;;;;4974941;28;20135;-54
2022/01/23 03:35:59;;;;;;;228.98;73.20;;;-5.50;99.90;;;;;;4974990;28;20440;-54
2022/01/23 03:38:25;;;;;;;204.02;68.78;;;-5.60;99.90;;;;;;4958616;28;20034;-54
2022/01/23 03:40:51;;;;;;;163.70;58.47;;;-5.50;99.90;;;;;;4974718;28;20098;-54
2022/01/23 03:43:25;;;;;;;134.93;52.13;;;-5.60;99.90;;;;;;5023636;28;20033;-54
2022/01/23 03:46:47;;;;;;;138.77;52.03;;;-5.70;99.90;;;;;;5073805;28;20039;-54
2022/01/23 03:51:12;;;;;;;145.65;52.85;;;-5.60;99.90;;;;;;5057783;28;19912;-54
2022/01/23 03:53:44;;;;;;;185.02;64.00;;;-5.60;99.90;;;;;;5057610;28;20386;-54
2022/01/23 03:56:10;;;;;;;239.85;78.95;;;-5.70;99.90;;;;;;5075763;28;20028;-54
2022/01/23 03:58:40;;;;;;;401.15;114.60;;;-5.80;99.90;;;;;;5074320;28;20424;-54
2022/01/23 04:01:09;;;;;;;309.13;97.72;;;-5.80;99.90;;;;;;5074291;28;20513;-54
2022/01/23 04:03:38;;;;;;;312.65;95.32;;;-5.70;99.90;;;;;;5074282;28;20032;-54
2022/01/23 04:06:05;;;;;;;231.38;76.22;;;-5.70;99.90;;;;;;5074124;28;20036;-54
2022/01/23 04:08:34;;;;;;;173.90;66.45;;;-5.50;99.90;;;;;;5074099;28;20036;-54
2022/01/23 04:11:02;;;;;;;135.27;55.40;;;-5.40;99.90;;;;;;5074199;28;20101;-54
2022/01/23 04:13:40;;;;;;;137.00;52.17;;;-5.40;99.90;;;;;;5073821;28;20367;-54
2022/01/23 04:33:12;;;;;;;145.80;53.00;;;-5.70;99.90;;;;;;5051672;28;20045;-54
2022/01/23 04:45:08;;;;;;;127.63;52.03;;;-5.90;99.90;;;;;;5057240;28;20032;-54
2022/01/23 04:59:54;;;;;;;103.05;43.45;;;-5.70;99.90;;;;;;5073259;28;20025;-54
2022/01/23 05:05:03;;;;;;;;;;;-5.90;99.90;;;;;;5074717;28;20041;-54
2022/01/23 05:08:00;;;;;;;128.63;47.83;;;-5.80;99.90;;;;;;5074537;28;19908;-54
2022/01/23 05:10:47;;;;;;;149.38;57.38;;;-6.10;99.90;;;;;;5073037;28;20516;-54
2022/01/23 05:13:28;;;;;;;160.45;64.68;;;-6.00;99.90;;;;;;5073101;28;20040;-54
2022/01/23 05:15:55;;;;;;;204.40;81.63;;;-5.90;99.90;;;;;;5056313;28;20036;-54
2022/01/23 05:18:25;;;;;;;229.50;89.40;;;-6.00;99.90;;;;;;5074336;28;20028;-54
2022/01/23 05:21:03;;;;;;;205.15;80.63;;;-5.90;99.90;;;;;;5056160;28;20025;-54
2022/01/23 05:23:29;;;;;;;175.15;70.15;;;-6.00;99.90;;;;;;5074567;28;20298;-54
2022/01/23 05:25:57;;;;;;;161.95;65.70;;;-5.90;99.90;;;;;;5074054;28;20478;-54
2022/01/23 05:28:23;;;;;;;141.27;59.10;;;-5.90;99.90;;;;;;5074387;28;20025;-54
2022/01/23 05:30:50;;;;;;;156.82;61.42;;;-5.90;99.90;;;;;;5072866;28;20076;-54
2022/01/23 05:33:16;;;;;;;149.15;63.65;;;-5.80;99.90;;;;;;5072643;28;20025;-54
2022/01/23 05:35:42;;;;;;;144.20;56.70;;;-5.90;99.90;;;;;;5056229;28;20039;-54
2022/01/23 05:38:10;;;;;;;128.90;53.00;;;-6.00;99.90;;;;;;5056225;28;20433;-54
2022/01/23 05:40:38;;;;;;;122.97;47.63;;;-6.00;99.90;;;;;;5055999;28;20036;-54
2022/01/23 05:43:04;;;;;;;117.80;48.58;;;-6.10;99.90;;;;;;5055897;28;20058;-54
2022/01/23 05:45:34;;;;;;;129.90;50.08;;;-6.10;99.90;;;;;;5056036;28;20366;-54
2022/01/23 05:48:07;;;;;;;141.30;55.28;;;-6.10;99.90;;;;;;5074198;28;20532;-54
2022/01/23 05:50:51;;;;;;;144.57;57.53;;;-6.00;99.90;;;;;;5074248;28;20063;-54
2022/01/23 05:53:36;;;;;;;173.98;76.95;;;-6.00;99.90;;;;;;5058948;28;20043;-54
2022/01/23 05:56:20;;;;;;;183.68;76.93;;;-5.90;99.90;;;;;;5074245;28;20452;-54
2022/01/23 05:58:49;;;;;;;143.25;61.88;;;-5.90;99.90;;;;;;5074048;28;20474;-54
2022/01/23 06:01:16;;;;;;;161.02;64.80;;;-5.90;99.90;;;;;;5055892;28;20032;-54
2022/01/23 06:03:45;;;;;;;147.88;60.38;;;-5.90;99.90;;;;;;5055919;28;20047;-54
2022/01/23 06:06:13;;;;;;;139.88;60.53;;;-6.00;99.90;;;;;;5055921;28;20035;-54
2022/01/23 06:08:40;;;;;;;135.23;57.15;;;-5.90;99.90;;;;;;5058602;28;20123;-54
2022/01/23 06:11:06;;;;;;;137.93;56.47;;;-5.90;99.90;;;;;;5059683;28;20359;-54
2022/01/23 06:13:37;;;;;;;144.10;61.53;;;-6.00;99.90;;;;;;5076185;28;20051;-54
2022/01/23 06:16:05;;;;;;;147.32;60.33;;;-6.00;99.90;;;;;;5093085;28;20028;-54
2022/01/23 06:18:35;;;;;;;155.95;67.80;;;-6.00;99.90;;;;;;5043079;28;20040;-54
2022/01/23 06:21:21;;;;;;;381.52;147.85;;;-5.90;99.90;;;;;;5077283;28;20098;-54
2022/01/23 06:26:53;;;;;;;362.27;145.02;;;-5.90;99.90;;;;;;5045698;28;20048;-54
2022/01/23 06:29:20;;;;;;;209.70;88.25;;;-5.80;99.90;;;;;;5059281;28;20086;-54
2022/01/23 06:31:48;;;;;;;181.30;74.28;;;-5.90;99.90;;;;;;5077012;28;20405;-54
2022/01/23 06:34:16;;;;;;;174.63;76.68;;;-5.80;99.90;;;;;;5077456;28;20033;-54
2022/01/23 06:36:43;;;;;;;158.52;74.80;;;-5.80;99.90;;;;;;5077045;28;20024;-54
2022/01/23 06:39:10;;;;;;;142.13;61.75;;;-6.00;99.90;;;;;;5059333;28;20478;-54
2022/01/23 06:41:38;;;;;;;112.10;47.03;;;-6.10;99.90;;;;;;5059123;28;20036;-54
2022/01/23 06:44:13;;;;;;;124.55;53.75;;;-6.20;99.90;;;;;;5058932;28;20115;-54
2022/01/23 06:46:42;;;;;;;141.25;58.80;;;-6.20;99.90;;;;;;5059074;28;20483;-54
2022/01/23 06:49:10;;;;;;;163.23;70.65;;;-6.10;99.90;;;;;;5058652;28;20032;-54
2022/01/23 06:51:38;;;;;;;187.27;85.10;;;-5.90;99.90;;;;;;5058756;28;20052;-54
2022/01/23 06:54:07;;;;;;;200.90;86.82;;;-5.90;99.90;;;;;;5058898;28;20507;-54
2022/01/23 06:56:35;;;;;;;199.65;82.68;;;-5.80;99.90;;;;;;5075483;28;20135;-54
2022/01/23 06:59:01;;;;;;;199.02;83.88;;;-5.70;99.90;;;;;;5058666;28;20032;-54
2022/01/23 07:01:27;;;;;;;197.32;79.25;;;-5.60;99.90;;;;;;5058785;28;20025;-54
2022/01/23 07:04:19;;;;;;;176.75;73.78;;;-5.50;99.90;;;;;;5058828;28;20024;-54
2022/01/23 07:06:56;;;;;;;177.30;74.18;;;-5.30;99.90;;;;;;5058438;28;20033;-54
2022/01/23 07:09:40;;;;;;;197.48;80.43;;;-5.20;99.90;;;;;;5077157;28;20115;-54
2022/01/23 07:12:30;;;;;;;208.63;85.18;;;-5.20;99.90;;;;;;5058367;28;20442;-54
2022/01/23 07:15:11;;;;;;;;;;;-5.40;99.90;;;;;;5058966;28;20121;-54
2022/01/23 07:17:43;;;;;;;245.25;95.55;;;-5.40;99.90;;;;;;5076601;28;19919;-54
2022/01/23 07:20:30;;;;;;;279.02;112.43;;;-5.30;99.90;;;;;;5074270;28;20033;-54
2022/01/23 07:23:02;;;;;;;289.35;120.50;;;-5.20;99.90;;;;;;5075020;28;20397;-54
2022/01/23 07:25:29;;;;;;;299.92;118.53;;;-5.20;99.90;;;;;;5074755;28;20089;-54
2022/01/23 07:27:58;;;;;;;275.58;107.40;;;-4.90;99.90;;;;;;5074834;28;20035;-54
2022/01/23 07:32:51;;;;;;;229.27;95.82;;;-4.80;99.90;;;;;;5054486;28;20395;-54
2022/01/23 07:35:18;;;;;;;233.73;94.95;;;-4.60;99.90;;;;;;5038064;28;20043;-54
2022/01/23 07:37:45;;;;;;;238.48;100.60;;;-4.70;99.90;;;;;;5038342;28;20120;-54
2022/01/23 07:40:34;;;;;;;246.60;104.03;;;-4.60;99.90;;;;;;5035784;28;20494;-54
2022/01/23 07:43:00;;;;;;;252.23;108.05;;;-4.50;99.90;;;;;;5037843;28;20552;-55
2022/01/23 07:45:45;;;;;;;307.23;128.13;;;-4.50;99.90;;;;;;5056085;28;20052;-54
2022/01/23 07:48:31;;;;;;;324.27;140.43;;;-4.40;99.90;;;;;;5044514;28;20032;-54
2022/01/23 07:51:18;;;;;;;350.58;147.05;;;-4.30;99.90;;;;;;5055227;28;20514;-54
2022/01/23 07:54:20;;;;;;;355.23;150.70;;;-4.20;99.90;;;;;;5048252;28;20029;-54
2022/01/23 07:57:05;;;;;;;382.73;162.75;;;-4.10;99.90;;;;;;5055753;28;20091;-54
2022/01/23 07:59:53;;;;;;;385.33;161.07;;;-3.80;99.90;;;;;;5055759;28;20482;-54
2022/01/23 08:02:26;;;;;;;377.27;159.85;;;-3.50;99.90;;;;;;5055420;28;20067;-54
2022/01/23 08:05:30;;;;;;;369.85;155.55;;;-3.10;99.90;;;;;;5054522;28;20041;-55
2022/01/23 08:08:22;;;;;;;339.48;144.07;;;-2.60;99.90;;;;;;5053810;28;20028;-55
2022/01/23 08:11:20;;;;;;;316.10;132.65;;;-2.20;99.90;;;;;;5035594;28;20025;-55
2022/01/23 08:13:46;;;;;;;289.48;125.80;;;-2.10;99.90;;;;;;5051859;28;20379;-55
2022/01/23 08:16:12;;;;;;;309.38;132.95;;;-1.90;99.90;;;;;;5055326;28;20032;-55
2022/01/23 08:18:38;;;;;;;301.85;134.30;;;-2.20;99.90;;;;;;5061575;28;20474;-55
2022/01/23 08:21:04;;;;;;;298.05;131.80;;;-2.30;99.90;;;;;;5075235;28;20041;-54
2022/01/23 08:23:30;;;;;;;294.40;128.82;;;-2.20;99.90;;;;;;5074886;28;20027;-55
2022/01/23 08:25:56;;;;;;;279.05;122.00;;;-2.00;99.90;;;;;;5075038;28;20032;-55
2022/01/23 08:28:22;;;;;;;275.13;120.03;;;-1.70;99.90;;;;;;5074924;28;20556;-55
2022/01/23 08:30:48;;;;;;;242.70;108.30;;;-1.60;99.90;;;;;;5074787;28;20060;-55
2022/01/23 08:33:14;;;;;;;226.90;101.32;;;-1.40;99.90;;;;;;5059164;28;20021;-55
2022/01/23 08:35:43;;;;;;;207.50;95.57;;;-1.50;99.90;;;;;;5055062;28;20035;-55
2022/01/23 08:38:09;;;;;;;165.48;73.18;;;-1.70;99.90;;;;;;5054579;28;20035;-54
2022/01/23 08:43:11;;;;;;;126.07;61.05;;;-1.70;99.90;;;;;;5054471;28;20032;-55
2022/01/23 08:45:38;;;;;;;136.80;60.47;;;-1.80;99.90;;;;;;5054673;28;20078;-55
2022/01/23 08:48:04;;;;;;;151.70;68.97;;;-1.80;99.90;;;;;;5054706;28;20056;-55
2022/01/23 08:50:31;;;;;;;211.38;93.22;;;-1.80;99.90;;;;;;5054396;28;20017;-55
2022/01/23 08:52:56;;;;;;;221.43;96.90;;;-1.90;99.90;;;;;;5054858;28;20025;-55
2022/01/23 08:55:22;;;;;;;258.25;108.50;;;-1.90;99.90;;;;;;5036711;28;20493;-55
2022/01/23 08:57:48;;;;;;;282.10;117.82;;;-1.90;99.90;;;;;;5054276;28;20032;-55
2022/01/23 09:00:15;;;;;;;291.95;120.50;;;-1.80;99.90;;;;;;5054706;28;20037;-55
2022/01/23 09:02:41;;;;;;;305.42;121.57;;;-1.60;99.90;;;;;;5054682;28;20029;-55
2022/01/23 09:05:07;;;;;;;307.88;124.82;;;-1.60;99.90;;;;;;5054180;28;20036;-54
2022/01/23 09:07:33;;;;;;;274.58;112.60;;;-1.40;99.90;;;;;;5054429;28;20040;-55
2022/01/23 09:10:02;;;;;;;267.40;113.80;;;-1.30;99.90;;;;;;5054441;28;20104;-55
2022/01/23 09:15:06;;;;;;;239.60;102.15;;;-1.20;99.90;;;;;;5054423;28;20033;-55
2022/01/23 09:17:32;;;;;;;220.07;95.82;;;-1.00;99.90;;;;;;5054508;28;20486;-55
2022/01/23 09:19:59;;;;;;;211.13;90.75;;;-0.90;99.90;;;;;;5073094;28;20111;-55
2022/01/23 09:22:29;;;;;;;209.75;87.85;;;-0.80;99.90;;;;;;5074075;28;20027;-55
2022/01/23 09:24:56;;;;;;;;;;;-0.70;99.90;;;;;;5074722;28;20495;-55
2022/01/23 09:27:22;;;;;;;166.73;62.67;;;-0.50;99.90;;;;;;5074163;28;19908;-55
2022/01/23 09:29:51;;;;;;;147.93;58.85;;;-0.40;99.90;;;;;;5073980;28;20025;-55
2022/01/23 09:32:20;;;;;;;126.40;51.40;;;-0.20;99.90;;;;;;5065837;28;20057;-55
2022/01/23 09:34:48;;;;;;;131.75;53.08;;;-0.10;99.90;;;;;;5054600;28;20018;-56
2022/01/23 09:37:16;;;;;;;129.90;55.30;;;0.10;99.90;;;;;;5053984;28;20075;-55
2022/01/23 09:39:49;;;;;;;111.90;48.42;;;0.10;99.90;;;;;;5054237;28;20029;-55
2022/01/23 09:42:30;;;;;;;105.13;46.85;;;0.20;99.90;;;;;;5054859;28;20029;-55
2022/01/23 09:45:05;;;;;;;112.32;48.42;;;0.30;99.90;;;;;;5058278;28;20180;-55
2022/01/23 09:47:36;;;;;;;93.35;41.42;;;0.40;99.90;;;;;;5057857;28;20041;-55
2022/01/23 09:50:05;;;;;;;93.80;41.45;;;0.50;99.90;;;;;;5057942;28;20025;-55
2022/01/23 09:52:34;;;;;;;93.78;39.95;;;0.60;99.90;;;;;;5057955;28;20017;-55
2022/01/23 09:55:08;;;;;;;94.97;39.50;;;0.60;99.90;;;;;;5057851;28;20163;-55
2022/01/23 09:57:44;;;;;;;79.93;34.92;;;0.60;99.90;;;;;;5057799;28;20512;-55
2022/01/23 10:00:13;;;;;;;69.38;33.88;;;0.60;99.90;;;;;;5057969;28;20468;-55
2022/01/23 10:02:46;;;;;;;83.55;37.17;;;0.70;99.90;;;;;;5058149;28;20029;-55
2022/01/23 10:05:14;;;;;;;76.95;35.05;;;0.80;99.90;;;;;;5057790;28;20553;-55
2022/01/23 10:07:42;;;;;;;58.30;28.63;;;0.70;99.90;;;;;;5057654;28;20079;-55
2022/01/23 10:10:20;;;;;;;59.92;28.45;;;0.80;99.90;;;;;;5057520;28;20025;-55
2022/01/23 10:12:54;;;;;;;50.08;24.95;;;0.90;99.90;;;;;;5057296;28;20048;-55
2022/01/23 10:15:25;;;;;;;49.25;23.13;;;1.00;99.90;;;;;;5057454;28;20064;-55
2022/01/23 10:17:59;;;;;;;48.45;25.10;;;1.10;99.90;;;;;;5058597;28;20037;-55
2022/01/23 10:20:26;;;;;;;46.53;23.13;;;1.20;99.90;;;;;;5077666;28;20024;-55
2022/01/23 10:22:57;;;;;;;47.00;22.27;;;1.30;99.90;;;;;;5077257;28;20055;-55
2022/01/23 10:25:29;;;;;;;43.63;23.40;;;1.30;99.90;;;;;;5077082;28;20028;-55
2022/01/23 10:28:03;;;;;;;47.17;22.17;;;1.50;99.90;;;;;;5077498;28;20108;-55
2022/01/23 10:30:42;;;;;;;33.65;17.48;;;1.50;99.90;;;;;;5077088;28;20044;-55
2022/01/23 10:33:29;;;;;;;38.60;18.92;;;1.70;99.90;;;;;;5061925;28;20027;-55
2022/01/23 10:36:07;;;;;;;42.53;21.08;;;1.70;99.90;;;;;;5057249;28;20061;-55
2022/01/23 10:38:53;;;;;;;39.28;18.33;;;1.90;99.90;;;;;;5056898;28;20092;-55
2022/01/23 10:49:57;;;;;;;34.40;16.45;;;2.00;99.90;;;;;;5023378;28;20045;-55
2022/01/23 10:52:38;;;;;;;43.15;21.13;;;2.00;99.90;;;;;;5056611;28;20458;-55
2022/01/23 10:55:13;;;;;;;36.28;17.10;;;2.00;99.90;;;;;;5055578;28;20242;-55
2022/01/23 10:57:42;;;;;;;35.03;17.02;;;2.10;99.90;;;;;;5056641;28;20044;-55
2022/01/23 11:00:11;;;;;;;31.38;15.30;;;2.00;99.90;;;;;;5056598;28;20158;-55
2022/01/23 11:02:47;;;;;;;29.83;15.57;;;2.10;99.90;;;;;;5056582;28;20017;-55
2022/01/23 11:05:15;;;;;;;32.72;16.77;;;2.20;99.90;;;;;;5056455;28;20021;-56
2022/01/23 11:07:45;;;;;;;31.73;15.45;;;2.10;99.90;;;;;;5056565;28;20052;-56
2022/01/23 11:10:15;;;;;;;29.50;15.25;;;2.20;99.90;;;;;;5056879;28;20036;-55
2022/01/23 11:18:07;;;;;;;26.13;12.98;;;2.20;99.90;;;;;;5059699;28;20394;-55
2022/01/23 11:20:44;;;;;;;33.80;15.68;;;2.20;99.90;;;;;;5076133;28;20462;-55
2022/01/23 11:23:23;;;;;;;41.83;19.45;;;2.20;99.90;;;;;;5076208;28;20048;-55
2022/01/23 11:25:52;;;;;;;51.35;21.48;;;2.20;99.90;;;;;;5076231;28;20032;-55
2022/01/23 11:28:18;;;;;;;44.05;18.38;;;2.30;99.90;;;;;;5075917;28;20028;-55
2022/01/23 11:30:46;;;;;;;34.53;16.48;;;2.30;99.90;;;;;;5076139;28;20052;-55
2022/01/23 11:33:17;;;;;;;47.80;20.67;;;2.30;99.90;;;;;;5060301;28;20108;-55
2022/01/23 11:35:44;;;;;;;31.25;14.77;;;2.20;99.90;;;;;;5055853;28;20033;-55
2022/01/23 11:38:14;;;;;;;30.95;15.02;;;2.30;99.90;;;;;;5055949;28;20119;-55
2022/01/23 11:54:48;;;;;;;30.20;15.40;;;2.30;99.90;;;;;;5055694;28;20075;-55
2022/01/23 11:57:33;;;;;;;34.63;16.77;;;2.20;99.90;;;;;;5055529;28;20035;-55
2022/01/23 12:00:18;;;;;;;27.40;15.95;;;2.30;99.90;;;;;;5055557;28;20062;-55
2022/01/23 12:03:04;;;;;;;34.28;18.23;;;2.40;99.90;;;;;;5055728;28;20287;-56
2022/01/23 12:05:31;;;;;;;26.10;15.48;;;2.40;99.90;;;;;;5055001;28;20463;-55
2022/01/23 12:08:16;;;;;;;19.75;11.05;;;2.50;99.90;;;;;;5055395;28;20102;-55
2022/01/23 12:11:24;;;;;;;28.77;15.77;;;2.50;99.90;;;;;;5055158;28;20036;-56
2022/01/23 12:17:05;;;;;;;31.73;16.70;;;2.50;99.90;;;;;;5055335;28;20040;-55
2022/01/23 12:19:44;;;;;;;25.33;13.88;;;2.50;99.90;;;;;;5070072;28;20032;-56
2022/01/23 12:22:32;;;;;;;25.90;14.40;;;2.50;99.90;;;;;;5075210;28;20036;-55
2022/01/23 12:25:10;;;;;;;29.08;13.30;;;2.40;99.90;;;;;;5074912;28;20383;-55
2022/01/23 12:27:36;;;;;;;21.30;12.15;;;2.40;99.90;;;;;;5075078;28;20482;-55
2022/01/23 12:30:21;;;;;;;30.10;18.35;;;2.40;99.90;;;;;;5074842;28;20043;-55
2022/01/23 12:33:07;;;;;;;25.70;14.90;;;2.40;99.90;;;;;;5062675;28;20072;-55
2022/01/23 12:35:39;;;;;;;30.15;16.17;;;2.30;99.90;;;;;;5054761;28;20095;-55
2022/01/23 12:38:09;;;;;;;21.45;11.80;;;2.30;99.90;;;;;;5055056;28;20040;-55
2022/01/23 12:40:43;;;;;;;21.25;12.45;;;2.20;99.90;;;;;;5054838;28;20071;-55
2022/01/23 12:43:25;;;;;;;32.08;13.43;;;2.20;99.90;;;;;;5054676;28;20040;-55
2022/01/23 12:45:52;;;;;;;29.85;14.18;;;2.10;99.90;;;;;;5054483;28;20033;-55
2022/01/23 12:48:43;;;;;;;23.85;14.23;;;2.20;99.90;;;;;;5054510;28;20100;-55
2022/01/23 12:51:35;;;;;;;18.52;11.25;;;2.30;99.90;;;;;;5047493;28;20067;-56
2022/01/23 12:54:13;;;;;;;23.75;12.18;;;2.20;99.90;;;;;;5054371;28;20048;-55
2022/01/23 12:56:47;;;;;;;25.50;13.20;;;2.20;99.90;;;;;;5054727;28;20021;-55
2022/01/23 12:59:27;;;;;;;23.85;14.38;;;2.30;99.90;;;;;;5054565;28;20068;-55
2022/01/23 13:02:02;;;;;;;22.05;11.57;;;2.30;99.90;;;;;;5054300;28;20024;-55
2022/01/23 13:04:33;;;;;;;34.70;13.63;;;2.30;99.90;;;;;;5054646;28;20060;-55
2022/01/23 13:07:07;;;;;;;24.23;13.30;;;2.20;99.90;;;;;;5054264;28;20029;-55
2022/01/23 13:31:49;;;;;;;17.70;9.00;;;2.20;99.90;;;;;;5036665;28;20042;-55
2022/01/23 13:34:37;;;;;;;17.15;10.27;;;2.20;99.90;;;;;;5054283;28;20425;-55
2022/01/23 13:37:05;;;;;;;19.23;9.93;;;2.20;99.90;;;;;;5054086;28;20108;-55
2022/01/23 13:39:43;;;;;;;20.65;10.35;;;2.10;99.90;;;;;;5054235;28;20175;-55
2022/01/23 13:48:55;;;;;;;21.27;10.88;;;2.10;99.90;;;;;;5054363;28;20040;-55
2022/01/23 13:59:52;;;;;;;24.05;13.20;;;2.10;99.90;;;;;;5053872;28;20051;-55
2022/01/23 14:02:28;;;;;;;30.08;16.55;;;2.10;99.90;;;;;;5052563;28;20132;-55
2022/01/23 14:05:03;;;;;;;26.02;14.80;;;2.10;99.90;;;;;;5053682;28;20025;-55
2022/01/23 14:07:30;;;;;;;32.28;17.63;;;2.20;99.90;;;;;;5053872;28;20028;-55
2022/01/23 14:09:59;;;;;;;30.17;17.23;;;2.10;99.90;;;;;;5053890;28;20029;-55
2022/01/23 14:12:26;;;;;;;18.70;11.88;;;2.10;99.90;;;;;;5053697;28;20054;-55
2022/01/23 14:15:05;;;;;;;20.25;9.82;;;2.10;99.90;;;;;;5053767;28;20032;-55
2022/01/23 14:17:36;;;;;;;20.95;13.20;;;2.10;99.90;;;;;;5053673;28;20040;-55
2022/01/23 14:20:16;;;;;;;22.38;13.65;;;2.10;99.90;;;;;;5072977;28;20047;-55
2022/01/23 14:22:45;;;;;;;31.27;18.10;;;2.00;99.90;;;;;;5074103;28;20086;-55
2022/01/23 14:25:20;;;;;;;21.52;12.30;;;2.00;99.90;;;;;;5073572;28;20031;-55
2022/01/23 14:28:10;;;;;;;28.02;16.05;;;1.90;99.90;;;;;;5073496;28;20113;-55
2022/01/23 14:30:59;;;;;;;29.08;16.25;;;1.90;99.90;;;;;;5062623;28;20052;-55
2022/01/23 14:33:33;;;;;;;26.77;14.60;;;1.90;99.90;;;;;;5059636;28;20036;-55
2022/01/23 14:36:13;;;;;;;30.83;17.27;;;1.90;99.90;;;;;;5055872;28;20120;-55
2022/01/23 14:38:52;;;;;;;34.83;17.23;;;1.80;99.90;;;;;;5057182;28;20109;-55
2022/01/23 14:41:17;;;;;;;25.17;14.07;;;1.80;99.90;;;;;;5056835;28;20033;-55
2022/01/23 14:43:44;;;;;;;30.77;17.35;;;1.90;99.90;;;;;;5057435;28;20029;-55
2022/01/23 14:46:12;;;;;;;29.27;17.27;;;1.90;99.90;;;;;;5056825;28;20036;-55
2022/01/23 14:48:45;;;;;;;22.60;13.93;;;1.80;99.90;;;;;;5057021;28;20039;-55
2022/01/23 14:51:16;;;;;;;36.47;20.50;;;1.80;99.90;;;;;;5056914;28;20063;-55
2022/01/23 14:53:42;;;;;;;29.10;16.27;;;1.80;99.90;;;;;;5056728;28;20056;-55
2022/01/23 14:56:12;;;;;;;33.55;19.15;;;1.80;99.90;;;;;;5056817;28;20060;-55
2022/01/23 14:58:39;;;;;;;34.88;18.95;;;1.80;99.90;;;;;;5056912;28;20501;-55
2022/01/23 15:01:11;;;;;;;34.95;19.77;;;1.70;99.90;;;;;;5056810;28;20056;-55
2022/01/23 15:03:41;;;;;;;43.53;22.10;;;1.70;99.90;;;;;;5056569;28;20029;-55
2022/01/23 15:06:07;;;;;;;39.63;20.77;;;1.70;99.90;;;;;;5056488;28;20143;-55
2022/01/23 15:08:33;;;;;;;37.88;17.48;;;1.70;99.90;;;;;;5056766;28;20466;-55
2022/01/23 15:11:01;;;;;;;43.22;22.05;;;1.60;99.90;;;;;;5056631;28;20292;-55
2022/01/23 15:13:28;;;;;;;47.78;22.80;;;1.70;99.90;;;;;;5056509;28;20493;-55
2022/01/23 15:15:55;;;;;;;30.40;16.33;;;1.70;99.90;;;;;;5056281;28;20040;-55
2022/01/23 15:18:22;;;;;;;51.75;24.73;;;1.70;99.90;;;;;;5061865;28;20036;-55
2022/01/23 15:20:49;;;;;;;46.08;22.83;;;1.70;99.90;;;;;;5076783;28;20055;-55
2022/01/23 15:23:16;;;;;;;34.20;18.45;;;1.60;99.90;;;;;;5076462;28;20060;-55
2022/01/23 15:25:44;;;;;;;33.42;19.13;;;1.60;99.90;;;;;;5076427;28;20025;-55
2022/01/23 15:28:11;;;;;;;46.42;22.80;;;1.60;99.90;;;;;;5076353;28;20024;-55
2022/01/23 15:30:37;;;;;;;32.00;17.40;;;1.70;99.90;;;;;;5076255;28;20056;-55
2022/01/23 15:33:06;;;;;;;32.90;17.55;;;1.70;99.90;;;;;;5061606;28;20068;-55
2022/01/23 15:35:34;;;;;;;35.25;18.27;;;1.70;99.90;;;;;;5055821;28;20458;-55
2022/01/23 15:38:01;;;;;;;25.90;14.75;;;1.70;99.90;;;;;;5056356;28;20047;-55
2022/01/23 15:40:27;;;;;;;51.72;26.23;;;1.70;99.90;;;;;;5055535;28;20091;-55
2022/01/23 15:42:54;;;;;;;63.92;30.83;;;1.60;99.90;;;;;;5055861;28;20302;-55
2022/01/23 15:45:22;;;;;;;37.72;18.98;;;1.60;99.90;;;;;;5055982;28;20108;-55
2022/01/23 15:47:48;;;;;;;33.88;16.10;;;1.50;99.90;;;;;;5055966;28;20025;-55
2022/01/23 15:50:17;;;;;;;17.88;9.45;;;1.50;99.90;;;;;;5055884;28;20036;-55
2022/01/23 15:52:43;;;;;;;33.47;15.88;;;1.50;99.90;;;;;;5055784;28;20036;-55
2022/01/23 15:55:11;;;;;;;21.27;11.48;;;1.40;99.90;;;;;;5055906;28;20032;-55
2022/01/23 15:57:39;;;;;;;43.75;18.15;;;1.50;99.90;;;;;;5055512;28;20091;-55
2022/01/23 16:00:08;;;;;;;33.75;15.63;;;1.50;99.90;;;;;;5055604;28;20032;-55
2022/01/23 16:02:39;;;;;;;41.95;18.13;;;1.50;99.90;;;;;;5055836;28;20506;-55
2022/01/23 16:05:05;;;;;;;41.42;18.73;;;1.50;99.90;;;;;;5055472;28;20033;-55
2022/01/23 16:07:31;;;;;;;49.00;22.27;;;1.50;99.90;;;;;;5055684;28;20117;-55
2022/01/23 16:09:58;;;;;;;44.30;21.50;;;1.40;99.90;;;;;;5055567;28;20025;-55
2022/01/23 16:12:24;;;;;;;41.38;17.88;;;1.50;99.90;;;;;;5055262;28;20056;-55
2022/01/23 16:14:50;;;;;;;70.85;35.00;;;1.40;99.90;;;;;;5055605;28;20040;-55
2022/01/23 16:17:16;;;;;;;72.45;36.47;;;1.40;99.90;;;;;;5055763;28;20051;-55
2022/01/23 16:19:42;;;;;;;72.28;37.08;;;1.40;99.90;;;;;;5071551;28;20059;-55
2022/01/23 16:22:08;;;;;;;62.72;31.50;;;1.30;99.90;;;;;;5075203;28;20027;-55